Language: 


Des rapports , des résumés tant et plus, au choix de chacun....


Données Historiques de Météogheer
Journalier Rapport pour Janvier 10, 2018 Unitée:  Les deux    Impériale   Métrique
Suivant Jour »
Journalier Hebdomadaire Mensuel Annuel Sur mesure
  Max: Min: Moyenne:
Température: 50.5 °F /  10.3 °C 39 °F /  3.9 °C 45.9 °F /  7.7 °C
Point de rosée: 50 °F /  10.0 °C 39.2 °F /  4.0 °C 45.9 °F /  7.7 °C
Humidité: 98% 95% 98%
Vent: 8.5mph /  13.7km/h - 3mph /  4.8km/h
Rafales: 10.7mph /  17.2km/h - -
Vent- - South
Pression: 29.8 in /  1009.0 hPa 29.7 in /  1005.0 hPa -
Pluie: 0.23 in /  5.8 mm    
Historical Graphs
 
 
Données tabulaires pour Janvier 10, 2018
Heure Température Point de rosée Pression Vent Vent Rafales Humidité Pluie Taux (Horaire) Conditions
00:54 45.5 °F /  7.5 °C 46.4 °F /  8.0 °C 29.7in /  1006.0hPa Calm   4mph /  6.4km/h 98% 0in /  0.0mm
01:02 45.5 °F /  7.5 °C 46.4 °F /  8.0 °C 29.7in /  1006.0hPa Calm   3.4mph /  5.5km/h 98% 0in /  0.0mm
01:06 45.5 °F /  7.5 °C 46.4 °F /  8.0 °C 29.7in /  1006.0hPa SSE 4.9mph /  7.9km/h 5.8mph /  9.3km/h 98% 0in /  0.0mm
01:09 45.5 °F /  7.5 °C 46.4 °F /  8.0 °C 29.7in /  1006.0hPa Calm   5.8mph /  9.3km/h 98% 0in /  0.0mm
01:14 45.7 °F /  7.6 °C 46.4 °F /  8.0 °C 29.7in /  1006.0hPa South 3.4mph /  5.5km/h 8.7mph /  14.0km/h 98% 0in /  0.0mm
01:17 45.7 °F /  7.6 °C 46.4 °F /  8.0 °C 29.7in /  1006.0hPa South 5.6mph /  9.0km/h 8.7mph /  14.0km/h 98% 0in /  0.0mm
01:22 45.7 °F /  7.6 °C 46.4 °F /  8.0 °C 29.7in /  1006.0hPa SSE 2.7mph /  4.3km/h 6.5mph /  10.5km/h 98% 0in /  0.0mm
01:27 45.9 °F /  7.7 °C 46.4 °F /  8.0 °C 29.7in /  1006.0hPa SSW 3.4mph /  5.5km/h 6.5mph /  10.5km/h 98% 0in /  0.0mm
01:33 45.9 °F /  7.7 °C 46.4 °F /  8.0 °C 29.7in /  1006.0hPa Calm   6.5mph /  10.5km/h 98% 0in /  0.0mm
01:40 45.9 °F /  7.7 °C 46.4 °F /  8.0 °C 29.7in /  1006.0hPa South 4.3mph /  6.9km/h 7.4mph /  11.9km/h 98% 0in /  0.0mm
01:44 45.9 °F /  7.7 °C 46.4 °F /  8.0 °C 29.7in /  1006.0hPa Calm   6.5mph /  10.5km/h 98% 0in /  0.0mm
01:52 45.9 °F /  7.7 °C 46.4 °F /  8.0 °C 29.7in /  1006.0hPa South 6.7mph /  10.8km/h 6.7mph /  10.8km/h 98% 0in /  0.0mm
02:01 46 °F /  7.8 °C 46.4 °F /  8.0 °C 29.7in /  1006.0hPa South 5.4mph /  8.7km/h 6.7mph /  10.8km/h 98% 0in /  0.0mm
02:06 46 °F /  7.8 °C 46.4 °F /  8.0 °C 29.7in /  1006.0hPa SSW 3.1mph /  5.0km/h 6.5mph /  10.5km/h 98% 0in /  0.0mm
02:10 46 °F /  7.8 °C 46.4 °F /  8.0 °C 29.7in /  1006.0hPa SSE 5.4mph /  8.7km/h 6.5mph /  10.5km/h 98% 0in /  0.0mm
02:17 46.2 °F /  7.9 °C 46.4 °F /  8.0 °C 29.7in /  1005.0hPa South 6mph /  9.7km/h 7.8mph /  12.6km/h 98% 0in /  0.0mm
02:22 46.2 °F /  7.9 °C 46.4 °F /  8.0 °C 29.7in /  1005.0hPa South 4.3mph /  6.9km/h 7.8mph /  12.6km/h 98% 0in /  0.0mm
02:34 46.2 °F /  7.9 °C 46.4 °F /  8.0 °C 29.7in /  1005.0hPa SSE 5.8mph /  9.3km/h 5.8mph /  9.3km/h 98% 0in /  0.0mm
02:43 46.4 °F /  8.0 °C 46.4 °F /  8.0 °C 29.7in /  1005.0hPa Calm   6.5mph /  10.5km/h 98% 0in /  0.0mm
03:06 46.4 °F /  8.0 °C 46.4 °F /  8.0 °C 29.7in /  1005.0hPa Calm   4.9mph /  7.9km/h 98% 0.01in /  0.3mm
03:08 46.4 °F /  8.0 °C 46.4 °F /  8.0 °C 29.7in /  1005.0hPa South 3.1mph /  5.0km/h 5.8mph /  9.3km/h 98% 0.01in /  0.3mm
03:33 46.4 °F /  8.0 °C 46.4 °F /  8.0 °C 29.7in /  1005.0hPa SSE 6.7mph /  10.8km/h 9.6mph /  15.4km/h 98% 0.05in /  1.3mm
03:34 46.4 °F /  8.0 °C 46.4 °F /  8.0 °C 29.7in /  1005.0hPa South 5.4mph /  8.7km/h 9.6mph /  15.4km/h 98% 0.05in /  1.3mm
03:43 46.4 °F /  8.0 °C 46.4 °F /  8.0 °C 29.7in /  1005.0hPa SSE 5.8mph /  9.3km/h 7.8mph /  12.6km/h 98% 0.06in /  1.5mm
03:48 46.4 °F /  8.0 °C 46.4 °F /  8.0 °C 29.7in /  1005.0hPa SSE 5.4mph /  8.7km/h 8.1mph /  13.0km/h 98% 0.07in /  1.8mm
04:09 46.4 °F /  8.0 °C 46.4 °F /  8.0 °C 29.7in /  1005.0hPa South 3.6mph /  5.8km/h 8.5mph /  13.7km/h 98% 0.09in /  2.3mm
04:10 46.4 °F /  8.0 °C 46.4 °F /  8.0 °C 29.7in /  1005.0hPa South 7.6mph /  12.2km/h 8.5mph /  13.7km/h 98% 0.09in /  2.3mm
04:15 46.4 °F /  8.0 °C 46.4 °F /  8.0 °C 29.7in /  1006.0hPa SSE 2.9mph /  4.7km/h 10.3mph /  16.6km/h 98% 0.09in /  2.3mm
04:26 46.4 °F /  8.0 °C 46.4 °F /  8.0 °C 29.7in /  1005.0hPa South 3.8mph /  6.1km/h 9.8mph /  15.8km/h 98% 0.07in /  1.8mm
04:32 46.4 °F /  8.0 °C 46.4 °F /  8.0 °C 29.7in /  1005.0hPa South 3.4mph /  5.5km/h 9.8mph /  15.8km/h 98% 0.09in /  2.3mm
04:45 46.4 °F /  8.0 °C 46.4 °F /  8.0 °C 29.7in /  1005.0hPa SSE 6.3mph /  10.1km/h 9.4mph /  15.1km/h 98% 0.1in /  2.5mm
04:56 46.4 °F /  8.0 °C 46.4 °F /  8.0 °C 29.7in /  1005.0hPa South 4.9mph /  7.9km/h 10.3mph /  16.6km/h 98% 0.09in /  2.3mm
05:08 46.4 °F /  8.0 °C 46.4 °F /  8.0 °C 29.7in /  1005.0hPa SSE 6mph /  9.7km/h 10.7mph /  17.2km/h 98% 0.07in /  1.8mm
05:29 46.4 °F /  8.0 °C 46.4 °F /  8.0 °C 29.7in /  1005.0hPa SSW 6.3mph /  10.1km/h 10.1mph /  16.3km/h 98% 0.06in /  1.5mm
05:41 46.4 °F /  8.0 °C 46.4 °F /  8.0 °C 29.7in /  1005.0hPa SSW 3.4mph /  5.5km/h 10.7mph /  17.2km/h 98% 0.05in /  1.3mm
05:48 46.4 °F /  8.0 °C 46.4 °F /  8.0 °C 29.7in /  1005.0hPa South 7.4mph /  11.9km/h 9.2mph /  14.8km/h 98% 0.02in /  0.5mm
05:55 46.4 °F /  8.0 °C 46.4 °F /  8.0 °C 29.7in /  1005.0hPa SSW 6.3mph /  10.1km/h 8.5mph /  13.7km/h 98% 0.02in /  0.5mm
06:04 46.4 °F /  8.0 °C 46.4 °F /  8.0 °C 29.7in /  1005.0hPa South 5.4mph /  8.7km/h 8.7mph /  14.0km/h 98% 0.01in /  0.3mm
06:22 46.4 °F /  8.0 °C 46.4 °F /  8.0 °C 29.7in /  1005.0hPa SSW 7.4mph /  11.9km/h 7.6mph /  12.2km/h 98% 0.01in /  0.3mm
06:28 46.4 °F /  8.0 °C 46.4 °F /  8.0 °C 29.7in /  1005.0hPa SSE 8.5mph /  13.7km/h 8.5mph /  13.7km/h 98% 0in /  0.0mm
06:42 46.4 °F /  8.0 °C 46.4 °F /  8.0 °C 29.7in /  1006.0hPa South 5.4mph /  8.7km/h 8.7mph /  14.0km/h 98% 0in /  0.0mm
06:52 46.4 °F /  8.0 °C 46.4 °F /  8.0 °C 29.7in /  1006.0hPa South 6mph /  9.7km/h 8.7mph /  14.0km/h 98% 0in /  0.0mm
07:41 46.4 °F /  8.0 °C 46.4 °F /  8.0 °C 29.7in /  1005.0hPa SSW 8.5mph /  13.7km/h 9.6mph /  15.4km/h 98% 0.01in /  0.3mm
07:51 46.4 °F /  8.0 °C 46.4 °F /  8.0 °C 29.7in /  1005.0hPa SSW 3.4mph /  5.5km/h 8.5mph /  13.7km/h 98% 0.01in /  0.3mm
08:17 46.4 °F /  8.0 °C 46.4 °F /  8.0 °C 29.7in /  1005.0hPa South 5.6mph /  9.0km/h 8.7mph /  14.0km/h 98% 0in /  0.0mm
09:17 45 °F /  7.2 °C 44.6 °F /  7.0 °C 29.7in /  1005.0hPa SSW 5.6mph /  9.0km/h 8.5mph /  13.7km/h 98% 0.01in /  0.3mm
09:48 45.1 °F /  7.3 °C 44.6 °F /  7.0 °C 29.7in /  1006.0hPa Calm   8.1mph /  13.0km/h 98% 0in /  0.0mm
09:54 45.1 °F /  7.3 °C 44.6 °F /  7.0 °C 29.7in /  1006.0hPa South 3.6mph /  5.8km/h 7.4mph /  11.9km/h 98% 0in /  0.0mm
10:17 45.3 °F /  7.4 °C 44.6 °F /  7.0 °C 29.7in /  1007.0hPa SSW 5.8mph /  9.3km/h 9.2mph /  14.8km/h 98% 0in /  0.0mm
10:28 45.3 °F /  7.4 °C 44.6 °F /  7.0 °C 29.7in /  1007.0hPa South 5.4mph /  8.7km/h 7.8mph /  12.6km/h 98% 0in /  0.0mm
11:16 45.9 °F /  7.7 °C 46.4 °F /  8.0 °C 29.7in /  1007.0hPa SSW 3.6mph /  5.8km/h 6.5mph /  10.5km/h 98% 0.01in /  0.3mm
11:55 46.4 °F /  8.0 °C 46.4 °F /  8.0 °C 29.7in /  1007.0hPa SW 6.3mph /  10.1km/h 7.2mph /  11.6km/h 98% 0in /  0.0mm
12:01 46.8 °F /  8.2 °C 46.4 °F /  8.0 °C 29.7in /  1007.0hPa SW 3.6mph /  5.8km/h 7.2mph /  11.6km/h 98% 0in /  0.0mm
12:08 46.9 °F /  8.3 °C 48.2 °F /  9.0 °C 29.7in /  1007.0hPa SW 4.9mph /  7.9km/h 8.1mph /  13.0km/h 98% 0in /  0.0mm
12:34 47.3 °F /  8.5 °C 48.2 °F /  9.0 °C 29.7in /  1006.0hPa South 4.3mph /  6.9km/h 9.8mph /  15.8km/h 98% 0in /  0.0mm
13:13 48.2 °F /  9.0 °C 48.2 °F /  9.0 °C 29.7in /  1006.0hPa Calm   9.6mph /  15.4km/h 98% 0in /  0.0mm
13:36 49.1 °F /  9.5 °C 50 °F /  10.0 °C 29.7in /  1006.0hPa South 5.6mph /  9.0km/h 6.9mph /  11.1km/h 98% 0in /  0.0mm
13:50 49.3 °F /  9.6 °C 50 °F /  10.0 °C 29.7in /  1006.0hPa SW 5.4mph /  8.7km/h 5.6mph /  9.0km/h 98% 0in /  0.0mm
14:06 49.5 °F /  9.7 °C 50 °F /  10.0 °C 29.7in /  1005.0hPa SSW 5.4mph /  8.7km/h 7.2mph /  11.6km/h 98% 0in /  0.0mm
14:16 49.5 °F /  9.7 °C 50 °F /  10.0 °C 29.7in /  1005.0hPa SSW 7.4mph /  11.9km/h 10.3mph /  16.6km/h 98% 0in /  0.0mm
14:21 49.5 °F /  9.7 °C 50 °F /  10.0 °C 29.7in /  1005.0hPa SW 5.4mph /  8.7km/h 10.3mph /  16.6km/h 98% 0in /  0.0mm
14:59 50.5 °F /  10.3 °C 50 °F /  10.0 °C 29.7in /  1006.0hPa WSW 6mph /  9.7km/h 10.3mph /  16.6km/h 97% 0in /  0.0mm
15:04 50.2 °F /  10.1 °C 50 °F /  10.0 °C 29.7in /  1006.0hPa SSW 7.8mph /  12.6km/h 8.5mph /  13.7km/h 96% 0in /  0.0mm
15:25 49.6 °F /  9.8 °C 48.2 °F /  9.0 °C 29.7in /  1005.0hPa Calm   8.1mph /  13.0km/h 96% 0in /  0.0mm
15:35 49.5 °F /  9.7 °C 48.2 °F /  9.0 °C 29.7in /  1005.0hPa SSW 4mph /  6.4km/h 6.3mph /  10.1km/h 96% 0in /  0.0mm
15:40 49.5 °F /  9.7 °C 48.2 °F /  9.0 °C 29.7in /  1005.0hPa SW 3.1mph /  5.0km/h 6.3mph /  10.1km/h 96% 0in /  0.0mm
15:45 49.3 °F /  9.6 °C 48.2 °F /  9.0 °C 29.7in /  1006.0hPa SSW 4.7mph /  7.6km/h 6mph /  9.7km/h 96% 0in /  0.0mm
15:50 49.3 °F /  9.6 °C 48.2 °F /  9.0 °C 29.7in /  1006.0hPa SW 2.7mph /  4.3km/h 6.7mph /  10.8km/h 96% 0in /  0.0mm
15:59 49.8 °F /  9.9 °C 50 °F /  10.0 °C 29.7in /  1006.0hPa Calm   6.3mph /  10.1km/h 96% 0in /  0.0mm
16:09 49.5 °F /  9.7 °C 48.2 °F /  9.0 °C 29.7in /  1006.0hPa SW 4mph /  6.4km/h 5.4mph /  8.7km/h 96% 0in /  0.0mm
16:15 49.1 °F /  9.5 °C 48.2 °F /  9.0 °C 29.7in /  1006.0hPa Calm   5.4mph /  8.7km/h 95% 0in /  0.0mm
16:33 48 °F /  8.9 °C 48.2 °F /  9.0 °C 29.7in /  1006.0hPa SSW 2.7mph /  4.3km/h 5.8mph /  9.3km/h 96% 0in /  0.0mm
16:41 47.8 °F /  8.8 °C 48.2 °F /  9.0 °C 29.7in /  1007.0hPa Calm   5.8mph /  9.3km/h 96% 0in /  0.0mm
16:50 47.3 °F /  8.5 °C 48.2 °F /  9.0 °C 29.7in /  1007.0hPa SSW 1.1mph /  1.8km/h 4mph /  6.4km/h 96% 0in /  0.0mm
16:59 47.3 °F /  8.5 °C 48.2 °F /  9.0 °C 29.7in /  1007.0hPa South 4mph /  6.4km/h 4.9mph /  7.9km/h 97% 0in /  0.0mm
17:08 47.3 °F /  8.5 °C 48.2 °F /  9.0 °C 29.7in /  1007.0hPa South 4.3mph /  6.9km/h 5.6mph /  9.0km/h 97% 0in /  0.0mm
17:19 47.3 °F /  8.5 °C 48.2 °F /  9.0 °C 29.7in /  1007.0hPa South 3.4mph /  5.5km/h 5.8mph /  9.3km/h 98% 0in /  0.0mm
17:25 47.3 °F /  8.5 °C 48.2 °F /  9.0 °C 29.7in /  1007.0hPa South 4.3mph /  6.9km/h 5.8mph /  9.3km/h 98% 0in /  0.0mm
17:40 46.8 °F /  8.2 °C 46.4 °F /  8.0 °C 29.7in /  1007.0hPa Calm   6.7mph /  10.8km/h 98% 0in /  0.0mm
17:45 46.8 °F /  8.2 °C 46.4 °F /  8.0 °C 29.7in /  1007.0hPa SSW 4.3mph /  6.9km/h 6.7mph /  10.8km/h 98% 0in /  0.0mm
17:51 46.6 °F /  8.1 °C 46.4 °F /  8.0 °C 29.7in /  1007.0hPa Calm   5.4mph /  8.7km/h 98% 0in /  0.0mm
17:56 46.6 °F /  8.1 °C 46.4 °F /  8.0 °C 29.7in /  1007.0hPa Calm   5.6mph /  9.0km/h 98% 0in /  0.0mm
18:04 46.4 °F /  8.0 °C 46.4 °F /  8.0 °C 29.7in /  1007.0hPa SSW 5.4mph /  8.7km/h 5.6mph /  9.0km/h 98% 0in /  0.0mm
18:11 46.6 °F /  8.1 °C 46.4 °F /  8.0 °C 29.7in /  1007.0hPa SSW 2.2mph /  3.5km/h 7.2mph /  11.6km/h 98% 0in /  0.0mm
18:16 46.6 °F /  8.1 °C 46.4 °F /  8.0 °C 29.7in /  1007.0hPa SSW 0.9mph /  1.4km/h 7.2mph /  11.6km/h 98% 0in /  0.0mm
18:21 46.8 °F /  8.2 °C 46.4 °F /  8.0 °C 29.7in /  1007.0hPa SSW 3.6mph /  5.8km/h 6.3mph /  10.1km/h 98% 0in /  0.0mm
18:30 46.8 °F /  8.2 °C 46.4 °F /  8.0 °C 29.7in /  1007.0hPa Calm   5.8mph /  9.3km/h 98% 0in /  0.0mm
18:35 46.8 °F /  8.2 °C 46.4 °F /  8.0 °C 29.7in /  1007.0hPa SSW 4.3mph /  6.9km/h 4.9mph /  7.9km/h 98% 0in /  0.0mm
18:40 46.8 °F /  8.2 °C 46.4 °F /  8.0 °C 29.7in /  1007.0hPa South 6mph /  9.7km/h 6mph /  9.7km/h 98% 0in /  0.0mm
18:45 46.8 °F /  8.2 °C 46.4 °F /  8.0 °C 29.7in /  1007.0hPa SSW 2mph /  3.2km/h 6mph /  9.7km/h 98% 0in /  0.0mm
18:53 46.6 °F /  8.1 °C 46.4 °F /  8.0 °C 29.7in /  1007.0hPa Calm   5.8mph /  9.3km/h 98% 0in /  0.0mm
18:59 46.6 °F /  8.1 °C 46.4 °F /  8.0 °C 29.7in /  1006.0hPa Calm   5.8mph /  9.3km/h 98% 0in /  0.0mm
19:04 46.4 °F /  8.0 °C 46.4 °F /  8.0 °C 29.7in /  1006.0hPa Calm   4.3mph /  6.9km/h 98% 0in /  0.0mm
19:10 46.4 °F /  8.0 °C 46.4 °F /  8.0 °C 29.7in /  1006.0hPa SSW 2mph /  3.2km/h 4.9mph /  7.9km/h 98% 0in /  0.0mm
19:19 46.4 °F /  8.0 °C 46.4 °F /  8.0 °C 29.7in /  1007.0hPa SSW 6mph /  9.7km/h 6.5mph /  10.5km/h 98% 0in /  0.0mm
19:24 46.4 °F /  8.0 °C 46.4 °F /  8.0 °C 29.7in /  1007.0hPa South 6.3mph /  10.1km/h 6.5mph /  10.5km/h 98% 0in /  0.0mm
19:31 46.4 °F /  8.0 °C 46.4 °F /  8.0 °C 29.8in /  1008.0hPa Calm   6.3mph /  10.1km/h 98% 0in /  0.0mm
19:40 46.4 °F /  8.0 °C 46.4 °F /  8.0 °C 29.8in /  1008.0hPa Calm   7.2mph /  11.6km/h 98% 0in /  0.0mm
19:52 46.4 °F /  8.0 °C 46.4 °F /  8.0 °C 29.8in /  1008.0hPa SSW 2.9mph /  4.7km/h 6.3mph /  10.1km/h 98% 0in /  0.0mm
19:58 46.4 °F /  8.0 °C 46.4 °F /  8.0 °C 29.8in /  1008.0hPa Calm   5.4mph /  8.7km/h 98% 0in /  0.0mm
20:07 46.2 °F /  7.9 °C 46.4 °F /  8.0 °C 29.8in /  1008.0hPa Calm   3.4mph /  5.5km/h 98% 0in /  0.0mm
20:15 45.9 °F /  7.7 °C 46.4 °F /  8.0 °C 29.8in /  1008.0hPa Calm   3.4mph /  5.5km/h 98% 0in /  0.0mm
20:25 45.1 °F /  7.3 °C 44.6 °F /  7.0 °C 29.8in /  1008.0hPa Calm     98% 0in /  0.0mm
20:36 44.6 °F /  7.0 °C 44.6 °F /  7.0 °C 29.7in /  1007.0hPa South 2.9mph /  4.7km/h 4.3mph /  6.9km/h 98% 0in /  0.0mm
20:55 43.9 °F /  6.6 °C 44.6 °F /  7.0 °C 29.7in /  1007.0hPa Calm   2.2mph /  3.5km/h 98% 0in /  0.0mm
21:00 43.7 °F /  6.5 °C 44.6 °F /  7.0 °C 29.7in /  1007.0hPa Calm   0.9mph /  1.4km/h 98% 0in /  0.0mm
21:14 43.3 °F /  6.3 °C 42.8 °F /  6.0 °C 29.8in /  1008.0hPa Calm   2.5mph /  4.0km/h 98% 0in /  0.0mm
21:29 42.8 °F /  6.0 °C 42.8 °F /  6.0 °C 29.8in /  1008.0hPa Calm   1.1mph /  1.8km/h 98% 0in /  0.0mm
21:48 41.9 °F /  5.5 °C 42.8 °F /  6.0 °C 29.8in /  1008.0hPa Calm     98% 0in /  0.0mm
21:55 41.7 °F /  5.4 °C 42.8 °F /  6.0 °C 29.8in /  1008.0hPa Calm     98% 0in /  0.0mm
22:04 41.4 °F /  5.2 °C 41 °F /  5.0 °C 29.8in /  1009.0hPa Calm     98% 0in /  0.0mm
22:12 41.2 °F /  5.1 °C 41 °F /  5.0 °C 29.8in /  1009.0hPa Calm     98% 0in /  0.0mm
22:20 41 °F /  5.0 °C 41 °F /  5.0 °C 29.8in /  1009.0hPa Calm     98% 0in /  0.0mm
22:25 41 °F /  5.0 °C 41 °F /  5.0 °C 29.8in /  1009.0hPa Calm     98% 0in /  0.0mm
22:30 40.8 °F /  4.9 °C 41 °F /  5.0 °C 29.8in /  1009.0hPa Calm   0.9mph /  1.4km/h 98% 0in /  0.0mm
22:34 40.8 °F /  4.9 °C 41 °F /  5.0 °C 29.8in /  1009.0hPa Calm   0.9mph /  1.4km/h 98% 0in /  0.0mm
22:46 40.6 °F /  4.8 °C 41 °F /  5.0 °C 29.8in /  1009.0hPa Calm     98% 0in /  0.0mm
22:57 40.5 °F /  4.7 °C 41 °F /  5.0 °C 29.8in /  1009.0hPa Calm   2.5mph /  4.0km/h 98% 0in /  0.0mm
23:04 40.5 °F /  4.7 °C 41 °F /  5.0 °C 29.8in /  1009.0hPa Calm     98% 0in /  0.0mm
23:11 40.3 °F /  4.6 °C 41 °F /  5.0 °C 29.8in /  1009.0hPa Calm     98% 0in /  0.0mm
23:19 40.3 °F /  4.6 °C 41 °F /  5.0 °C 29.8in /  1009.0hPa Calm     98% 0in /  0.0mm
23:25 40.3 °F /  4.6 °C 41 °F /  5.0 °C 29.8in /  1009.0hPa Calm     98% 0in /  0.0mm
23:33 39.6 °F /  4.2 °C 39.2 °F /  4.0 °C 29.8in /  1009.0hPa Calm     98% 0in /  0.0mm
23:40 39.4 °F /  4.1 °C 39.2 °F /  4.0 °C 29.8in /  1009.0hPa Calm     98% 0in /  0.0mm
23:48 39 °F /  3.9 °C 39.2 °F /  4.0 °C 29.8in /  1009.0hPa Calm     98% 0in /  0.0mm
Données Historique de Météo Turbie

Mise a jour : 25/05/2018 07:12:17
Généré par Cumulus 1.9.4 (1099)